Time;durP1;ratioP1;P1;durP2;ratioP2;P2;SDS_P1;SDS_P2;PMS_P1;PMS_P2;Temp;Humidity;BMP_temperature;BMP_pressure;BME280_temperature;BME280_humidity;BME280_pressure;Samples;Min_cycle;Max_cycle;Signal;HPM_P1;HPM_P2
2022/06/13 00:00:32;;;;;;;11.82;4.13;;;11.30;99.90;;;;;;5009671;28;20045;-38
2022/06/13 00:02:59;;;;;;;12.88;3.70;;;11.40;99.90;;;;;;5009855;28;20050;-39
2022/06/13 00:05:25;;;;;;;10.43;4.57;;;11.40;99.90;;;;;;5009658;28;20129;-39
2022/06/13 00:07:50;;;;;;;13.10;3.88;;;11.40;99.90;;;;;;5009814;28;20117;-38
2022/06/13 00:10:16;;;;;;;9.52;4.07;;;11.40;99.90;;;;;;5009145;28;20529;-39
2022/06/13 00:12:43;;;;;;;9.10;4.18;;;11.30;99.90;;;;;;5009190;28;20045;-39
2022/06/13 00:15:11;;;;;;;10.43;3.30;;;11.30;99.90;;;;;;5009800;28;20428;-38
2022/06/13 00:17:37;;;;;;;8.40;4.10;;;11.40;99.90;;;;;;5009336;28;20072;-38
2022/06/13 00:20:07;;;;;;;10.63;4.13;;;12.10;99.90;;;;;;5009775;28;20297;-38
2022/06/13 00:22:33;;;;;;;11.02;3.85;;;11.20;99.90;;;;;;5008826;28;20049;-38
2022/06/13 00:24:59;;;;;;;12.52;3.70;;;11.10;99.90;;;;;;5009262;28;20493;-41
2022/06/13 00:27:25;;;;;;;12.02;4.40;;;11.30;99.90;;;;;;5009226;28;20046;-39
2022/06/13 00:29:51;;;;;;;14.95;4.50;;;10.90;99.90;;;;;;5007765;28;20077;-38
2022/06/13 00:32:17;;;;;;;9.65;4.80;;;11.10;99.90;;;;;;5009456;28;20353;-39
2022/06/13 00:34:44;;;;;;;10.73;4.70;;;11.30;99.90;;;;;;5009265;28;20117;-38
2022/06/13 00:37:09;;;;;;;12.40;4.82;;;11.20;99.90;;;;;;5008635;28;20045;-39
2022/06/13 00:39:35;;;;;;;16.60;4.88;;;11.10;99.90;;;;;;5009155;28;20050;-39
2022/06/13 00:42:01;;;;;;;14.98;4.82;;;11.10;99.90;;;;;;5009177;28;20041;-39
2022/06/13 00:44:33;;;;;;;11.57;4.85;;;11.20;99.90;;;;;;5009054;28;20580;-39
2022/06/13 00:46:59;;;;;;;11.82;4.72;;;11.10;99.90;;;;;;5009490;28;20042;-39
2022/06/13 00:49:30;;;;;;;9.18;4.15;;;11.80;99.90;;;;;;5008739;28;20049;-39
2022/06/13 00:52:05;;;;;;;13.83;5.00;;;11.10;99.90;;;;;;5007734;28;20045;-39
2022/06/13 00:54:34;;;;;;;14.80;4.68;;;11.20;99.90;;;;;;5008878;28;20038;-39
2022/06/13 00:57:00;;;;;;;10.55;4.63;;;11.30;99.90;;;;;;5009313;28;20042;-38
2022/06/13 00:59:30;;;;;;;11.95;4.07;;;11.30;99.90;;;;;;5008988;28;20057;-39
2022/06/13 01:01:57;;;;;;;10.32;4.10;;;12.00;99.90;;;;;;5009578;28;20115;-39
2022/06/13 01:04:23;;;;;;;13.00;4.80;;;11.50;99.90;;;;;;5008806;28;20081;-39
2022/06/13 01:06:51;;;;;;;10.20;4.53;;;11.20;99.90;;;;;;5009266;28;20084;-38
2022/06/13 01:09:18;;;;;;;12.68;4.88;;;11.20;99.90;;;;;;5008688;28;20141;-38
2022/06/13 01:11:51;;;;;;;15.52;4.28;;;11.20;99.90;;;;;;5008744;28;20421;-38
2022/06/13 01:14:31;;;;;;;16.90;5.43;;;11.10;99.90;;;;;;5008946;28;20505;-39
2022/06/13 01:17:09;;;;;;;11.15;4.40;;;11.20;99.90;;;;;;5008545;28;20093;-39
2022/06/13 01:19:46;;;;;;;10.27;4.45;;;11.20;99.90;;;;;;5008065;28;20053;-38
2022/06/13 01:22:45;;;;;;;11.70;4.18;;;11.20;99.90;;;;;;5008737;28;20049;-39
2022/06/13 01:25:26;;;;;;;14.07;4.25;;;11.30;99.90;;;;;;5008402;28;20045;-39
2022/06/13 01:28:35;;;;;;;14.38;4.45;;;11.30;99.90;;;;;;5008547;28;20081;-39
2022/06/13 01:31:39;;;;;;;11.23;3.88;;;11.40;99.90;;;;;;5007887;28;20502;-38
2022/06/13 01:34:17;;;;;;;13.38;4.65;;;11.50;99.90;;;;;;5005258;28;20045;-39
2022/06/13 01:37:02;;;;;;;9.88;3.45;;;11.60;99.90;;;;;;5007762;28;20146;-39
2022/06/13 01:39:58;;;;;;;9.43;5.38;;;11.50;99.90;;;;;;5008159;28;20052;-38
2022/06/13 01:42:47;;;;;;;13.00;4.55;;;11.60;99.90;;;;;;5008051;28;20045;-39
2022/06/13 01:45:22;;;;;;;14.07;4.75;;;11.60;99.90;;;;;;5008189;28;20050;-39
2022/06/13 01:48:12;;;;;;;12.60;3.78;;;11.60;99.90;;;;;;5008021;28;20050;-39
2022/06/13 01:51:01;;;;;;;11.73;4.43;;;11.60;99.90;;;;;;5007661;28;20508;-39
2022/06/13 01:54:14;;;;;;;10.00;4.97;;;11.50;99.90;;;;;;5006930;28;20579;-39
2022/06/13 01:57:28;;;;;;;15.52;5.15;;;11.50;99.90;;;;;;5007936;28;20046;-38
2022/06/13 02:00:03;;;;;;;11.80;4.38;;;11.40;99.90;;;;;;5005226;28;20524;-39
2022/06/13 02:02:46;;;;;;;13.73;5.43;;;11.20;99.90;;;;;;5007646;28;20050;-38
2022/06/13 02:05:41;;;;;;;12.07;4.78;;;11.20;99.90;;;;;;5008130;28;20488;-38
2022/06/13 02:08:29;;;;;;;13.25;5.07;;;11.20;99.90;;;;;;5006640;28;20062;-38
2022/06/13 02:11:04;;;;;;;10.77;4.35;;;11.20;99.90;;;;;;5006563;28;20061;-39
2022/06/13 02:13:38;;;;;;;17.30;5.20;;;11.20;99.90;;;;;;5007876;28;20052;-38
2022/06/13 02:16:20;;;;;;;14.30;4.50;;;11.10;99.90;;;;;;5008122;28;20045;-38
2022/06/13 02:18:52;;;;;;;13.90;5.07;;;11.20;99.90;;;;;;5007590;28;20406;-38
2022/06/13 02:21:21;;;;;;;14.35;5.82;;;9.50;99.90;;;;;;5008169;28;20050;-39
2022/06/13 02:23:51;;;;;;;17.40;5.00;;;11.60;99.90;;;;;;5007813;28;20050;-39
2022/06/13 02:26:31;;;;;;;17.40;5.43;;;11.90;99.90;;;;;;5007554;28;20053;-39
2022/06/13 02:29:07;;;;;;;14.27;5.75;;;12.00;99.90;;;;;;5007718;28;20564;-38
2022/06/13 02:31:50;;;;;;;9.95;5.32;;;11.20;99.90;;;;;;5008075;28;20060;-38
2022/06/13 02:34:24;;;;;;;18.25;5.78;;;11.10;99.90;;;;;;5008096;28;20046;-39
2022/06/13 02:36:58;;;;;;;14.15;5.53;;;11.00;99.90;;;;;;5008136;28;20041;-39
2022/06/13 02:39:31;;;;;;;12.63;5.82;;;11.50;99.90;;;;;;5008413;28;20050;-39
2022/06/13 02:42:10;;;;;;;17.13;5.60;;;11.40;99.90;;;;;;5007425;28;20041;-38
2022/06/13 02:44:44;;;;;;;13.25;6.50;;;11.10;99.90;;;;;;5007456;28;20034;-38
2022/06/13 02:47:18;;;;;;;13.23;5.00;;;11.00;99.90;;;;;;5007541;28;20481;-38
2022/06/13 02:50:17;;;;;;;12.02;5.63;;;10.80;99.90;;;;;;5007184;28;20089;-39
2022/06/13 02:52:57;;;;;;;17.67;6.82;;;11.00;99.90;;;;;;5006838;28;20041;-39
2022/06/13 02:55:23;;;;;;;16.55;5.80;;;11.80;99.90;;;;;;5007268;28;20394;-38
2022/06/13 02:58:07;;;;;;;13.65;5.22;;;11.00;99.90;;;;;;5007585;28;20413;-38
2022/06/13 03:00:54;;;;;;;13.13;6.03;;;11.10;99.90;;;;;;5010601;28;20042;-38
2022/06/13 03:03:35;;;;;;;18.90;6.88;;;11.10;99.90;;;;;;5010947;28;20057;-39
2022/06/13 03:06:16;;;;;;;16.25;6.90;;;11.30;99.90;;;;;;5010995;28;20075;-39
2022/06/13 03:08:54;;;;;;;17.38;6.57;;;11.10;99.90;;;;;;5011356;28;20049;-39
2022/06/13 03:11:19;;;;;;;18.33;7.20;;;11.10;99.90;;;;;;5010555;28;20054;-39
2022/06/13 03:14:08;;;;;;;17.83;7.18;;;11.00;99.90;;;;;;4993116;28;20213;-39
2022/06/13 03:16:39;;;;;;;21.20;7.60;;;11.30;99.90;;;;;;5010954;28;20478;-39
2022/06/13 03:19:21;;;;;;;16.00;7.25;;;11.30;99.90;;;;;;5011121;28;20046;-39
2022/06/13 03:21:51;;;;;;;15.25;6.82;;;11.30;99.90;;;;;;5010582;28;20048;-39
2022/06/13 03:24:30;;;;;;;16.00;7.75;;;11.50;99.90;;;;;;5010883;28;20053;-39
2022/06/13 03:27:04;;;;;;;18.17;6.60;;;11.30;99.90;;;;;;5010516;28;20042;-39
2022/06/13 03:29:47;;;;;;;16.15;6.80;;;11.40;99.90;;;;;;5010525;28;20485;-39
2022/06/13 03:32:24;;;;;;;17.58;7.20;;;11.40;99.90;;;;;;5010597;28;20049;-38
2022/06/13 03:34:55;;;;;;;19.20;6.38;;;11.40;99.90;;;;;;5010675;28;20048;-38
2022/06/13 03:37:36;;;;;;;19.83;6.57;;;11.50;99.90;;;;;;5010690;28;20041;-39
2022/06/13 03:40:11;;;;;;;14.18;6.88;;;11.60;99.90;;;;;;5008656;28;20074;-39
2022/06/13 03:42:46;;;;;;;16.05;6.90;;;11.60;99.90;;;;;;5010708;28;20060;-39
2022/06/13 03:45:28;;;;;;;15.63;7.30;;;11.60;99.90;;;;;;5010789;28;20050;-38
2022/06/13 03:47:57;;;;;;;;;;;11.70;99.90;;;;;;5011130;28;20056;-39
2022/06/13 03:50:43;;;;;;;19.13;7.40;;;11.70;99.90;;;;;;5010696;28;19932;-39
2022/06/13 03:53:27;;;;;;;17.67;6.57;;;12.00;99.90;;;;;;5010243;28;20041;-38
2022/06/13 03:56:14;;;;;;;16.58;6.63;;;11.80;99.90;;;;;;5010059;28;20046;-39
2022/06/13 03:58:51;;;;;;;13.27;6.07;;;11.80;99.90;;;;;;5010118;28;20050;-39
2022/06/13 04:01:27;;;;;;;16.42;5.95;;;11.90;99.90;;;;;;5009761;28;20549;-39
2022/06/13 04:03:55;;;;;;;12.60;6.88;;;12.00;99.90;;;;;;5009892;28;20122;-39
2022/06/13 04:06:30;;;;;;;17.77;7.45;;;12.00;99.90;;;;;;5009831;28;20482;-39
2022/06/13 04:08:57;;;;;;;15.65;6.35;;;12.00;99.90;;;;;;5009518;28;20490;-38
2022/06/13 04:11:28;;;;;;;18.60;8.20;;;12.40;99.90;;;;;;5008121;28;20038;-38
2022/06/13 04:14:48;;;;;;;14.68;6.95;;;12.20;99.90;;;;;;5009941;28;20037;-38
2022/06/13 04:17:22;;;;;;;13.00;6.20;;;12.40;99.90;;;;;;5009319;28;20686;-39
2022/06/13 04:20:03;;;;;;;16.38;6.50;;;12.50;99.90;;;;;;5009613;28;20042;-38
2022/06/13 04:22:35;;;;;;;12.90;6.68;;;12.60;99.90;;;;;;5008301;28;20098;-38
2022/06/13 04:25:33;;;;;;;16.85;6.13;;;12.80;99.90;;;;;;5009427;28;20049;-39
2022/06/13 04:28:08;;;;;;;15.38;5.25;;;13.00;99.90;;;;;;5009189;28;20049;-39
2022/06/13 04:30:35;;;;;;;14.45;5.30;;;13.30;99.90;;;;;;5009094;28;20490;-39
2022/06/13 04:33:19;;;;;;;10.60;4.65;;;14.40;99.90;;;;;;5009281;28;20046;-39
2022/06/13 04:35:46;;;;;;;11.48;4.38;;;14.00;99.90;;;;;;5009428;28;20422;-38
2022/06/13 04:38:15;;;;;;;11.07;4.72;;;13.90;99.90;;;;;;5009231;28;20045;-38
2022/06/13 04:40:45;;;;;;;9.98;4.68;;;13.80;99.90;;;;;;5009211;28;20045;-39
2022/06/13 04:43:14;;;;;;;7.82;3.88;;;13.80;99.90;;;;;;5009616;28;20046;-39
2022/06/13 04:45:50;;;;;;;12.63;5.05;;;13.80;99.90;;;;;;5009260;28;20053;-39
2022/06/13 04:48:17;;;;;;;12.10;4.38;;;13.80;99.90;;;;;;5009520;28;20053;-39
2022/06/13 04:50:47;;;;;;;9.60;3.65;;;13.70;99.90;;;;;;5009579;28;20046;-38
2022/06/13 04:53:22;;;;;;;10.68;4.13;;;14.40;99.90;;;;;;5008857;28;20489;-38
2022/06/13 04:55:51;;;;;;;10.23;3.10;;;13.80;99.90;;;;;;5007474;28;20030;-39
2022/06/13 04:58:42;;;;;;;12.50;3.85;;;13.80;99.90;;;;;;5008786;28;20117;-39
2022/06/13 05:01:23;;;;;;;10.20;3.85;;;13.90;99.90;;;;;;5008925;28;20050;-39
2022/06/13 05:03:50;;;;;;;11.55;3.17;;;14.00;99.90;;;;;;5008818;28;20173;-39
2022/06/13 05:06:38;;;;;;;10.57;2.88;;;14.10;99.90;;;;;;5008822;28;20116;-39
2022/06/13 05:09:16;;;;;;;10.45;3.00;;;14.30;99.90;;;;;;5008651;28;20048;-39
2022/06/13 05:12:09;;;;;;;9.07;2.55;;;14.30;99.90;;;;;;5008529;28;20488;-39
2022/06/13 05:14:43;;;;;;;7.78;2.63;;;14.50;99.90;;;;;;5009131;28;20057;-39
2022/06/13 05:17:20;;;;;;;10.93;2.70;;;14.90;99.90;;;;;;5008331;28;20064;-39
2022/06/13 05:19:53;;;;;;;10.00;1.80;;;14.90;99.90;;;;;;5008846;28;20057;-39
2022/06/13 05:22:21;;;;;;;6.43;1.45;;;15.10;99.90;;;;;;5008396;28;20050;-40
2022/06/13 05:25:03;;;;;;;6.75;1.65;;;15.60;99.90;;;;;;5008873;28;20089;-39
2022/06/13 05:27:29;;;;;;;6.70;1.40;;;15.50;99.90;;;;;;5008745;28;20045;-39
2022/06/13 05:29:54;;;;;;;6.95;2.25;;;15.80;99.90;;;;;;5008601;28;20053;-39
2022/06/13 05:32:22;;;;;;;8.88;1.30;;;16.30;99.90;;;;;;5008526;28;20034;-40
2022/06/13 05:34:48;;;;;;;5.50;1.38;;;17.00;99.90;;;;;;5008157;28;20046;-42
2022/06/13 05:37:16;;;;;;;5.90;1.00;;;17.40;99.90;;;;;;5008267;28;20041;-40
2022/06/13 05:39:43;;;;;;;11.25;1.23;;;17.40;99.90;;;;;;5008488;28;20046;-39
2022/06/13 05:42:13;;;;;;;6.78;1.42;;;17.30;99.90;;;;;;5008323;28;20050;-39
2022/06/13 05:44:40;;;;;;;3.65;0.90;;;17.20;99.50;;;;;;5008411;28;20125;-39
2022/06/13 05:47:13;;;;;;;5.82;0.77;;;17.00;99.70;;;;;;5007870;28;20073;-39
2022/06/13 05:49:39;;;;;;;4.10;1.00;;;16.80;99.00;;;;;;5008073;28;20057;-39
2022/06/13 05:52:05;;;;;;;3.88;0.70;;;16.60;99.70;;;;;;5007730;28;20077;-39
2022/06/13 05:54:30;;;;;;;4.65;1.38;;;16.30;99.90;;;;;;5008149;28;20038;-39
2022/06/13 05:56:56;;;;;;;3.55;1.05;;;16.20;99.90;;;;;;5023309;28;20414;-40
2022/06/13 05:59:22;;;;;;;7.65;0.85;;;16.00;99.90;;;;;;5008058;28;20657;-39
2022/06/13 06:01:47;;;;;;;3.50;0.50;;;16.10;99.90;;;;;;5008663;28;20091;-39
2022/06/13 06:04:13;;;;;;;4.43;0.80;;;16.50;99.90;;;;;;5008128;28;20520;-39
2022/06/13 06:06:39;;;;;;;4.00;1.00;;;16.20;99.90;;;;;;5008445;28;20374;-39
2022/06/13 06:09:06;;;;;;;5.55;0.68;;;16.30;99.40;;;;;;5007900;28;20049;-39
2022/06/13 06:11:32;;;;;;;1.73;0.40;;;16.40;98.90;;;;;;5007557;28;20525;-39
2022/06/13 06:13:58;;;;;;;1.80;0.30;;;16.30;98.30;;;;;;5007977;28;20046;-39
2022/06/13 06:16:26;;;;;;;6.25;0.50;;;16.20;98.00;;;;;;5007679;28;20053;-40
2022/06/13 06:18:52;;;;;;;3.97;0.50;;;16.80;97.00;;;;;;5008023;28;20072;-39
2022/06/13 06:21:18;;;;;;;3.80;0.45;;;17.10;96.60;;;;;;5007792;28;20092;-40
2022/06/13 06:23:43;;;;;;;4.40;0.70;;;17.30;97.30;;;;;;5007864;28;20045;-39
2022/06/13 06:26:12;;;;;;;3.30;0.57;;;17.70;98.20;;;;;;5007512;28;20057;-41
2022/06/13 06:28:38;;;;;;;2.67;0.57;;;20.80;94.70;;;;;;5008043;28;20048;-40
2022/06/13 06:31:04;;;;;;;2.78;0.40;;;21.80;91.60;;;;;;5007897;28;20053;-40
2022/06/13 06:33:32;;;;;;;3.33;0.32;;;23.70;86.10;;;;;;5008001;28;20045;-40
2022/06/13 06:35:58;;;;;;;7.63;0.50;;;24.20;77.90;;;;;;5011543;28;20053;-42
2022/06/13 06:38:25;;;;;;;4.50;0.57;;;23.80;76.90;;;;;;5011397;28;20115;-40
2022/06/13 06:40:51;;;;;;;3.00;0.60;;;24.00;76.70;;;;;;5011138;28;20501;-41
2022/06/13 06:43:18;;;;;;;2.78;0.40;;;24.10;77.40;;;;;;5011600;28;20049;-41
2022/06/13 06:45:44;;;;;;;3.88;0.28;;;24.00;75.70;;;;;;5011783;28;20069;-40
2022/06/13 06:48:19;;;;;;;2.53;0.30;;;23.60;73.80;;;;;;5011228;28;20084;-41
2022/06/13 06:50:48;;;;;;;3.13;0.20;;;23.30;72.80;;;;;;5011603;28;20150;-40
2022/06/13 06:53:16;;;;;;;3.92;0.38;;;23.30;73.60;;;;;;5010905;28;20041;-40
2022/06/13 07:01:13;;;;;;;2.65;0.47;;;24.90;68.60;;;;;;5009524;28;20056;-41
2022/06/13 07:03:40;;;;;;;7.32;0.90;;;24.10;67.80;;;;;;5009373;28;20045;-41
2022/06/13 07:06:07;;;;;;;2.33;0.35;;;23.40;68.00;;;;;;5009294;28;20765;-40
2022/06/13 07:08:33;;;;;;;3.28;0.20;;;22.60;68.80;;;;;;5009268;28;20045;-40
2022/06/13 07:13:45;;;;;;;3.38;0.30;;;22.30;71.10;;;;;;5009584;28;20494;-40
2022/06/13 07:16:11;;;;;;;3.03;0.65;;;22.40;71.60;;;;;;5007617;28;20050;-39
2022/06/13 07:18:36;;;;;;;1.80;0.20;;;22.20;72.10;;;;;;5009057;28;20464;-40
2022/06/13 07:21:02;;;;;;;4.38;0.77;;;22.00;72.70;;;;;;5009061;28;20049;-40
2022/06/13 07:23:29;;;;;;;2.33;0.55;;;22.50;72.80;;;;;;5009591;28;20354;-39
2022/06/13 07:25:54;;;;;;;2.83;0.60;;;22.30;72.10;;;;;;5009594;28;20089;-40
2022/06/13 07:28:20;;;;;;;1.90;0.45;;;22.10;72.20;;;;;;5010031;28;20056;-41
2022/06/13 07:30:46;;;;;;;3.17;0.45;;;22.70;71.20;;;;;;5009752;28;20457;-40
2022/06/13 07:33:11;;;;;;;2.25;0.38;;;24.10;70.10;;;;;;5009207;28;20437;-40
2022/06/13 07:35:39;;;;;;;4.22;0.30;;;24.40;69.20;;;;;;5009938;28;20096;-41
2022/06/13 07:38:16;;;;;;;2.63;0.80;;;25.40;67.10;;;;;;5010146;28;20041;-40
2022/06/13 07:40:57;;;;;;;2.92;0.70;;;26.80;64.90;;;;;;5009513;28;20444;-40
2022/06/13 07:43:36;;;;;;;1.90;0.30;;;28.00;62.30;;;;;;5009692;28;20081;-41
2022/06/13 07:46:04;;;;;;;3.05;0.45;;;29.40;61.00;;;;;;5009548;28;20052;-42
2022/06/13 07:48:31;;;;;;;1.77;0.30;;;30.80;58.80;;;;;;5009090;28;20583;-41
2022/06/13 07:50:58;;;;;;;1.63;0.20;;;31.70;56.30;;;;;;5009560;28;20524;-45
2022/06/13 07:53:24;;;;;;;1.67;0.30;;;32.50;54.40;;;;;;5009941;28;20037;-42
2022/06/13 07:55:50;;;;;;;2.88;0.30;;;33.30;52.90;;;;;;5008206;28;20489;-41
2022/06/13 07:58:21;;;;;;;3.30;0.70;;;33.60;50.70;;;;;;5010197;28;20045;-42
2022/06/13 08:00:49;;;;;;;;;;;32.70;50.30;;;;;;5010534;28;20144;-43
2022/06/13 08:03:26;;;;;;;1.52;0.20;;;33.10;52.50;;;;;;5010187;28;19928;-41
2022/06/13 08:05:52;;;;;;;2.50;0.32;;;33.20;49.80;;;;;;5009156;28;20049;-44
2022/06/13 08:08:18;;;;;;;2.28;0.43;;;31.70;49.60;;;;;;5009621;28;20045;-41
2022/06/13 08:10:45;;;;;;;3.38;0.45;;;31.30;49.70;;;;;;5009563;28;20042;-41
2022/06/13 08:13:19;;;;;;;3.42;0.32;;;30.10;49.90;;;;;;5009907;28;20405;-40
2022/06/13 08:15:45;;;;;;;3.88;0.40;;;29.20;50.60;;;;;;4979402;28;20372;-43
2022/06/13 08:18:13;;;;;;;1.63;0.30;;;27.90;52.00;;;;;;5003818;28;20132;-47
2022/06/13 08:20:41;;;;;;;3.25;0.30;;;27.00;52.90;;;;;;4999939;28;20114;-48
2022/06/13 08:23:09;;;;;;;4.53;0.45;;;26.00;54.20;;;;;;5003757;28;20103;-48
2022/06/13 08:25:36;;;;;;;4.40;0.32;;;25.10;55.80;;;;;;5004429;28;20100;-46
2022/06/13 08:28:04;;;;;;;3.17;0.45;;;24.20;59.40;;;;;;5002960;28;20496;-44
2022/06/13 08:30:49;;;;;;;4.75;0.28;;;23.70;58.10;;;;;;5004361;28;20053;-42
2022/06/13 08:33:17;;;;;;;4.35;0.35;;;23.20;58.80;;;;;;5005475;28;20049;-41
2022/06/13 08:35:43;;;;;;;3.78;0.55;;;24.30;62.70;;;;;;5006377;28;20068;-40
2022/06/13 08:38:10;;;;;;;7.50;0.93;;;21.70;65.90;;;;;;5006516;28;20056;-43
2022/06/13 08:40:55;;;;;;;3.80;0.40;;;21.20;70.80;;;;;;5005855;28;20045;-44
2022/06/13 08:43:29;;;;;;;4.63;0.30;;;20.50;72.10;;;;;;5005968;28;20046;-40
2022/06/13 08:46:14;;;;;;;3.35;0.30;;;20.40;74.40;;;;;;5004281;28;20045;-43
2022/06/13 08:48:44;;;;;;;4.72;0.68;;;20.00;75.60;;;;;;5005534;28;20049;-44
2022/06/13 08:51:19;;;;;;;4.80;0.35;;;20.00;77.10;;;;;;5005381;28;20046;-47
2022/06/13 08:53:56;;;;;;;4.45;0.45;;;20.30;77.60;;;;;;5005901;28;20482;-44
2022/06/13 08:56:27;;;;;;;2.08;0.38;;;20.90;76.30;;;;;;5005116;28;20051;-44
2022/06/13 08:59:24;;;;;;;2.22;0.30;;;22.80;72.50;;;;;;5006005;28;20416;-43
2022/06/13 09:02:06;;;;;;;13.18;3.45;;;25.40;68.90;;;;;;5005335;28;20081;-43
2022/06/13 09:04:51;;;;;;;2.92;0.40;;;28.40;63.00;;;;;;5005473;28;20052;-42
2022/06/13 09:07:17;;;;;;;3.67;0.40;;;29.30;58.40;;;;;;5005800;28;20045;-42
2022/06/13 09:10:01;;;;;;;4.90;0.50;;;28.70;56.80;;;;;;5005245;28;20045;-50
2022/06/13 09:12:48;;;;;;;3.75;0.25;;;28.10;55.50;;;;;;5005815;28;20038;-54
2022/06/13 09:15:18;;;;;;;6.60;0.90;;;27.60;55.60;;;;;;5005753;28;20140;-45
2022/06/13 09:17:46;;;;;;;3.70;0.30;;;27.00;56.50;;;;;;4984868;28;20084;-45
2022/06/13 09:20:46;;;;;;;3.25;0.50;;;27.10;57.30;;;;;;5006412;28;20049;-45
2022/06/13 09:23:24;;;;;;;2.58;0.43;;;28.60;57.30;;;;;;5006568;28;20132;-50
2022/06/13 09:26:06;;;;;;;3.08;0.30;;;30.30;55.80;;;;;;5006851;28;20092;-48
2022/06/13 09:28:50;;;;;;;5.78;1.05;;;31.80;53.90;;;;;;5005524;28;20050;-46
2022/06/13 09:31:34;;;;;;;1.88;0.30;;;32.50;51.20;;;;;;5006035;28;20050;-44
2022/06/13 09:34:11;;;;;;;2.10;0.35;;;32.10;49.10;;;;;;5005667;28;20042;-45
2022/06/13 09:36:46;;;;;;;2.75;0.30;;;31.50;49.40;;;;;;5004730;28;20519;-46
2022/06/13 09:39:12;;;;;;;4.57;0.35;;;31.00;47.60;;;;;;5004143;28;20120;-48
2022/06/13 09:41:47;;;;;;;4.85;0.30;;;29.90;47.80;;;;;;5004566;28;20041;-46
2022/06/13 09:44:38;;;;;;;2.90;0.10;;;28.60;48.90;;;;;;5005397;28;20121;-44
2022/06/13 09:47:34;;;;;;;3.10;0.38;;;27.10;50.40;;;;;;5004660;28;20069;-44
2022/06/13 09:50:05;;;;;;;0.82;0.20;;;26.00;51.50;;;;;;5004804;28;20375;-46
2022/06/13 09:52:50;;;;;;;;;;;25.70;53.00;;;;;;5005167;28;20045;-53
2022/06/13 09:55:41;;;;;;;12.75;0.90;;;25.80;54.60;;;;;;5005112;28;20359;-51
2022/06/13 09:58:21;;;;;;;3.67;0.60;;;25.40;57.20;;;;;;5005159;28;20056;-48
2022/06/13 10:01:05;;;;;;;2.65;0.20;;;23.60;61.30;;;;;;5004721;28;20053;-56
2022/06/13 10:03:49;;;;;;;3.53;0.40;;;21.80;67.10;;;;;;5003831;28;20084;-58
2022/06/13 10:06:26;;;;;;;1.50;0.10;;;20.70;72.20;;;;;;5004910;28;20513;-57
2022/06/13 10:08:55;;;;;;;4.25;1.00;;;20.30;77.30;;;;;;5007365;28;20050;-55
2022/06/13 10:11:32;;;;;;;3.47;0.88;;;21.00;82.40;;;;;;5012504;28;20046;-57
2022/06/13 10:14:23;;;;;;;4.03;0.10;;;23.00;82.50;;;;;;5003495;28;20048;-44
2022/06/13 10:17:10;;;;;;;2.80;0.20;;;25.10;74.80;;;;;;4988306;28;20086;-52
2022/06/13 10:19:54;;;;;;;2.58;0.35;;;27.10;67.40;;;;;;5006276;28;20045;-44
2022/06/13 10:22:26;;;;;;;5.10;0.45;;;27.60;62.60;;;;;;5013464;28;20042;-50
2022/06/13 10:25:15;;;;;;;2.38;0.38;;;28.70;61.50;;;;;;5013268;28;20049;-46
2022/06/13 10:27:54;;;;;;;4.63;0.40;;;29.60;57.70;;;;;;5013214;28;20042;-52
2022/06/13 10:30:27;;;;;;;3.03;0.20;;;29.20;54.70;;;;;;5012376;28;20045;-52
2022/06/13 10:33:11;;;;;;;3.55;0.20;;;27.90;55.60;;;;;;5009763;28;20046;-55
2022/06/13 10:35:58;;;;;;;3.17;0.50;;;26.30;55.90;;;;;;5011618;28;20053;-55
2022/06/13 10:38:27;;;;;;;3.55;0.50;;;24.30;67.20;;;;;;5010793;28;20123;-46
2022/06/13 10:40:53;;;;;;;2.75;0.30;;;24.10;58.30;;;;;;5008947;28;20053;-47
2022/06/13 10:43:19;;;;;;;4.55;0.32;;;23.20;61.20;;;;;;5006848;28;20661;-46
2022/06/13 10:45:45;;;;;;;5.03;0.50;;;23.20;63.50;;;;;;5008069;28;20532;-47
2022/06/13 10:48:20;;;;;;;4.95;0.40;;;24.20;63.30;;;;;;5008447;28;20046;-47
2022/06/13 10:50:58;;;;;;;5.32;0.40;;;25.80;62.20;;;;;;5008003;28;20053;-46
2022/06/13 10:53:35;;;;;;;2.53;0.40;;;26.30;60.30;;;;;;5008337;28;20736;-46
2022/06/13 10:56:03;;;;;;;5.80;0.77;;;25.90;59.90;;;;;;5008727;28;20033;-46
2022/06/13 10:58:58;;;;;;;6.78;0.90;;;25.40;59.80;;;;;;5011023;28;20030;-47
2022/06/13 11:01:29;;;;;;;14.57;3.03;;;24.70;59.80;;;;;;5010300;28;20100;-46
2022/06/13 11:04:03;;;;;;;4.70;0.75;;;24.60;61.10;;;;;;5011142;28;20042;-46
2022/06/13 11:06:51;;;;;;;6.10;1.20;;;24.40;62.20;;;;;;5011523;28;20467;-46
2022/06/13 11:09:26;;;;;;;5.38;0.40;;;23.60;63.40;;;;;;5010991;28;20445;-47
2022/06/13 11:11:58;;;;;;;6.93;0.52;;;23.30;63.60;;;;;;5011108;28;20151;-46
2022/06/13 11:14:36;;;;;;;8.38;0.73;;;22.90;64.40;;;;;;5011284;28;20038;-47
2022/06/13 11:22:39;;;;;;;6.88;0.50;;;22.80;64.80;;;;;;5010615;28;20068;-46
2022/06/13 11:25:32;;;;;;;4.75;0.30;;;22.70;64.50;;;;;;5010332;28;20517;-46
2022/06/13 11:28:21;;;;;;;6.15;0.75;;;22.80;64.60;;;;;;5011455;28;20080;-46
2022/06/13 11:30:49;;;;;;;3.92;0.60;;;22.80;64.90;;;;;;5011216;28;20053;-46
2022/06/13 11:33:22;;;;;;;4.40;0.93;;;22.90;64.90;;;;;;5011103;28;20037;-46
2022/06/13 11:36:02;;;;;;;5.82;0.55;;;22.70;64.70;;;;;;5010808;28;20131;-46
2022/06/13 11:38:35;;;;;;;4.30;0.43;;;22.30;64.80;;;;;;5010395;28;20046;-46
2022/06/13 11:41:11;;;;;;;3.22;0.45;;;21.70;64.80;;;;;;5010437;28;20041;-46
2022/06/13 11:43:46;;;;;;;6.90;0.60;;;21.30;66.30;;;;;;5010453;28;20099;-46
2022/06/13 11:46:42;;;;;;;5.43;0.45;;;21.00;67.70;;;;;;5010446;28;20489;-46
2022/06/13 11:49:14;;;;;;;6.85;0.60;;;21.40;69.80;;;;;;5009325;28;20631;-47
2022/06/13 11:51:47;;;;;;;4.60;0.50;;;21.60;68.70;;;;;;5010869;28;20104;-47
2022/06/13 11:54:25;;;;;;;4.65;1.00;;;21.70;68.80;;;;;;5011506;28;20046;-48
2022/06/13 11:57:17;;;;;;;5.22;0.70;;;21.80;68.30;;;;;;5010839;28;20448;-45
2022/06/13 12:00:14;;;;;;;7.32;1.17;;;21.60;68.90;;;;;;5010797;28;20084;-46
2022/06/13 12:02:39;;;;;;;6.72;0.50;;;21.40;69.60;;;;;;5008597;28;20421;-46
2022/06/13 12:05:31;;;;;;;9.68;0.70;;;21.20;70.00;;;;;;5010578;28;20053;-45
2022/06/13 12:07:59;;;;;;;;;;;21.30;70.90;;;;;;5011078;28;20045;-46
2022/06/13 12:10:28;;;;;;;6.93;0.95;;;21.40;70.00;;;;;;5009328;28;20380;-47
2022/06/13 12:12:54;;;;;;;6.18;0.60;;;21.30;69.30;;;;;;5009625;28;20481;-45
2022/06/13 12:15:22;;;;;;;6.82;0.95;;;21.30;69.00;;;;;;5010253;28;20038;-45
2022/06/13 12:17:57;;;;;;;10.13;0.82;;;21.20;69.10;;;;;;5009613;28;20497;-45
2022/06/13 12:20:36;;;;;;;5.78;1.10;;;21.10;68.80;;;;;;5009664;28;20048;-45
2022/06/13 12:23:08;;;;;;;5.28;1.27;;;21.00;69.10;;;;;;5009433;28;20056;-45
2022/06/13 12:25:49;;;;;;;7.15;0.50;;;20.70;68.70;;;;;;5010001;28;20130;-45
2022/06/13 12:28:19;;;;;;;6.37;0.90;;;20.40;69.10;;;;;;5009960;28;20049;-45
2022/06/13 12:30:58;;;;;;;4.00;0.50;;;20.10;69.90;;;;;;5009200;28;20297;-44
2022/06/13 12:33:26;;;;;;;4.15;0.60;;;19.80;71.00;;;;;;5008788;28;20053;-46
2022/06/13 12:36:07;;;;;;;11.32;0.77;;;19.70;71.20;;;;;;5009295;28;20121;-46
2022/06/13 12:39:03;;;;;;;5.82;1.10;;;19.70;72.40;;;;;;5009936;28;20096;-46
2022/06/13 12:42:06;;;;;;;6.60;0.50;;;20.00;73.10;;;;;;5009669;28;20397;-46
2022/06/13 12:44:57;;;;;;;4.78;0.47;;;20.30;72.50;;;;;;5007164;28;20509;-46
2022/06/13 12:48:21;;;;;;;7.30;1.20;;;20.30;71.70;;;;;;5009579;28;20064;-45
2022/06/13 12:51:05;;;;;;;5.80;0.40;;;20.30;70.70;;;;;;4996612;28;20505;-44
2022/06/13 12:53:41;;;;;;;7.63;0.68;;;20.30;70.70;;;;;;5009874;28;20050;-45
2022/06/13 12:56:10;;;;;;;4.20;0.47;;;20.60;70.60;;;;;;5009537;28;20049;-47
2022/06/13 12:58:59;;;;;;;6.82;1.10;;;20.90;71.00;;;;;;5009880;28;20096;-45
2022/06/13 13:01:52;;;;;;;4.65;0.60;;;21.30;70.80;;;;;;5009810;28;20057;-48
2022/06/13 13:04:43;;;;;;;5.10;0.60;;;21.70;69.80;;;;;;5009323;28;20493;-46
2022/06/13 13:07:27;;;;;;;7.30;0.57;;;21.90;68.40;;;;;;5009814;28;20112;-46
2022/06/13 13:09:53;;;;;;;5.45;0.47;;;22.00;67.30;;;;;;5009241;28;20054;-45
2022/06/13 13:12:39;;;;;;;4.60;0.63;;;21.90;66.80;;;;;;5009311;28;20041;-44
2022/06/13 13:15:31;;;;;;;5.25;0.35;;;21.80;66.50;;;;;;5009366;28;20512;-45
2022/06/13 13:18:05;;;;;;;6.20;0.75;;;21.60;66.10;;;;;;5006056;28;20062;-44
2022/06/13 13:20:49;;;;;;;3.47;0.40;;;21.50;66.30;;;;;;5009087;28;20054;-45
2022/06/13 13:23:18;;;;;;;7.30;0.47;;;21.50;66.10;;;;;;5009521;28;20037;-45
2022/06/13 13:26:07;;;;;;;8.13;1.13;;;21.60;66.80;;;;;;5009107;28;20393;-46
2022/06/13 13:28:46;;;;;;;5.50;0.45;;;21.60;67.20;;;;;;5009236;28;20057;-44
2022/06/13 13:31:20;;;;;;;6.95;0.70;;;21.60;66.40;;;;;;5009370;28;20050;-46
2022/06/13 13:33:49;;;;;;;4.97;0.50;;;21.40;66.90;;;;;;5009417;28;20042;-45
2022/06/13 13:36:29;;;;;;;5.43;0.50;;;21.10;66.30;;;;;;5009018;28;20391;-49
2022/06/13 13:39:05;;;;;;;4.97;0.85;;;21.00;66.40;;;;;;5009199;28;20038;-44